sensor_id;sensor_type;location;lat;lon;timestamp;temperature;humidity
14119;DHT22;7138;49.246;9.100;2024-02-16T00:01:53;9.80;99.90
14119;DHT22;7138;49.246;9.100;2024-02-16T00:04:18;9.70;99.90
14119;DHT22;7138;49.246;9.100;2024-02-16T00:06:46;9.70;99.90
14119;DHT22;7138;49.246;9.100;2024-02-16T00:09:13;9.50;99.90
14119;DHT22;7138;49.246;9.100;2024-02-16T00:11:42;9.40;99.90
14119;DHT22;7138;49.246;9.100;2024-02-16T00:14:16;9.30;99.90
14119;DHT22;7138;49.246;9.100;2024-02-16T00:16:41;9.30;99.90
14119;DHT22;7138;49.246;9.100;2024-02-16T00:19:07;9.30;99.90
14119;DHT22;7138;49.246;9.100;2024-02-16T00:21:33;9.30;99.90
14119;DHT22;7138;49.246;9.100;2024-02-16T00:24:00;9.30;99.90
14119;DHT22;7138;49.246;9.100;2024-02-16T00:26:28;9.20;99.90
14119;DHT22;7138;49.246;9.100;2024-02-16T00:28:54;9.10;99.90
14119;DHT22;7138;49.246;9.100;2024-02-16T00:31:20;9.00;99.90
14119;DHT22;7138;49.246;9.100;2024-02-16T00:33:46;9.10;99.90
14119;DHT22;7138;49.246;9.100;2024-02-16T00:36:11;9.10;99.90
14119;DHT22;7138;49.246;9.100;2024-02-16T00:38:37;9.10;99.90
14119;DHT22;7138;49.246;9.100;2024-02-16T00:41:05;9.10;99.90
14119;DHT22;7138;49.246;9.100;2024-02-16T00:43:31;9.00;99.90
14119;DHT22;7138;49.246;9.100;2024-02-16T00:45:56;9.00;99.90
14119;DHT22;7138;49.246;9.100;2024-02-16T00:48:22;9.00;99.90
14119;DHT22;7138;49.246;9.100;2024-02-16T00:50:49;9.00;99.90
14119;DHT22;7138;49.246;9.100;2024-02-16T00:53:15;9.10;99.90
14119;DHT22;7138;49.246;9.100;2024-02-16T00:55:41;9.00;99.90
14119;DHT22;7138;49.246;9.100;2024-02-16T00:58:08;9.00;99.90
14119;DHT22;7138;49.246;9.100;2024-02-16T01:00:34;9.00;99.90
14119;DHT22;7138;49.246;9.100;2024-02-16T01:03:01;9.00;99.90
14119;DHT22;7138;49.246;9.100;2024-02-16T01:05:27;9.00;99.90
14119;DHT22;7138;49.246;9.100;2024-02-16T01:07:52;9.00;99.90
14119;DHT22;7138;49.246;9.100;2024-02-16T01:10:18;9.00;99.90
14119;DHT22;7138;49.246;9.100;2024-02-16T01:12:44;9.00;99.90
14119;DHT22;7138;49.246;9.100;2024-02-16T01:15:11;9.00;99.90
14119;DHT22;7138;49.246;9.100;2024-02-16T01:17:37;9.10;99.90
14119;DHT22;7138;49.246;9.100;2024-02-16T01:20:06;9.00;99.90
14119;DHT22;7138;49.246;9.100;2024-02-16T01:22:36;9.00;99.90
14119;DHT22;7138;49.246;9.100;2024-02-16T01:25:01;9.00;99.90
14119;DHT22;7138;49.246;9.100;2024-02-16T01:27:28;9.10;99.90
14119;DHT22;7138;49.246;9.100;2024-02-16T01:29:54;9.10;99.90
14119;DHT22;7138;49.246;9.100;2024-02-16T01:32:21;9.30;99.90
14119;DHT22;7138;49.246;9.100;2024-02-16T01:34:47;9.40;99.90
14119;DHT22;7138;49.246;9.100;2024-02-16T01:37:15;9.50;99.90
14119;DHT22;7138;49.246;9.100;2024-02-16T01:39:41;9.40;99.90
14119;DHT22;7138;49.246;9.100;2024-02-16T01:42:07;9.30;99.90
14119;DHT22;7138;49.246;9.100;2024-02-16T01:44:33;9.30;99.90
14119;DHT22;7138;49.246;9.100;2024-02-16T01:46:59;9.20;99.90
14119;DHT22;7138;49.246;9.100;2024-02-16T01:49:27;9.20;99.90
14119;DHT22;7138;49.246;9.100;2024-02-16T01:51:53;9.20;99.90
14119;DHT22;7138;49.246;9.100;2024-02-16T01:54:19;9.20;99.90
14119;DHT22;7138;49.246;9.100;2024-02-16T01:56:45;9.20;99.90
14119;DHT22;7138;49.246;9.100;2024-02-16T01:59:12;9.10;99.90
14119;DHT22;7138;49.246;9.100;2024-02-16T02:01:39;9.20;99.90
14119;DHT22;7138;49.246;9.100;2024-02-16T02:04:05;9.20;99.90
14119;DHT22;7138;49.246;9.100;2024-02-16T02:06:32;9.20;99.90
14119;DHT22;7138;49.246;9.100;2024-02-16T02:08:58;9.30;99.90
14119;DHT22;7138;49.246;9.100;2024-02-16T02:11:24;9.30;99.90
14119;DHT22;7138;49.246;9.100;2024-02-16T02:13:50;9.20;99.90
14119;DHT22;7138;49.246;9.100;2024-02-16T02:16:17;9.10;99.90
14119;DHT22;7138;49.246;9.100;2024-02-16T02:18:45;9.10;99.90
14119;DHT22;7138;49.246;9.100;2024-02-16T02:21:10;9.10;99.90
14119;DHT22;7138;49.246;9.100;2024-02-16T02:23:39;8.90;99.90
14119;DHT22;7138;49.246;9.100;2024-02-16T02:26:05;8.90;99.90
14119;DHT22;7138;49.246;9.100;2024-02-16T02:28:31;8.80;99.90
14119;DHT22;7138;49.246;9.100;2024-02-16T02:30:57;8.80;99.90
14119;DHT22;7138;49.246;9.100;2024-02-16T02:33:23;8.80;99.90
14119;DHT22;7138;49.246;9.100;2024-02-16T02:35:49;8.80;99.90
14119;DHT22;7138;49.246;9.100;2024-02-16T02:38:14;8.80;99.90
14119;DHT22;7138;49.246;9.100;2024-02-16T02:40:42;8.80;99.90
14119;DHT22;7138;49.246;9.100;2024-02-16T02:43:07;8.80;99.90
14119;DHT22;7138;49.246;9.100;2024-02-16T02:45:34;8.80;99.90
14119;DHT22;7138;49.246;9.100;2024-02-16T02:48:00;8.70;99.90
14119;DHT22;7138;49.246;9.100;2024-02-16T02:50:26;9.00;99.90
14119;DHT22;7138;49.246;9.100;2024-02-16T02:52:52;9.10;99.90
14119;DHT22;7138;49.246;9.100;2024-02-16T02:55:18;9.10;99.90
14119;DHT22;7138;49.246;9.100;2024-02-16T02:57:45;9.20;99.90
14119;DHT22;7138;49.246;9.100;2024-02-16T03:00:12;9.20;99.90
14119;DHT22;7138;49.246;9.100;2024-02-16T03:02:38;9.10;99.90
14119;DHT22;7138;49.246;9.100;2024-02-16T03:05:05;9.10;99.90
14119;DHT22;7138;49.246;9.100;2024-02-16T03:07:32;9.00;99.90
14119;DHT22;7138;49.246;9.100;2024-02-16T03:09:58;8.90;99.90
14119;DHT22;7138;49.246;9.100;2024-02-16T03:12:24;9.00;99.90
14119;DHT22;7138;49.246;9.100;2024-02-16T03:14:51;9.00;99.90
14119;DHT22;7138;49.246;9.100;2024-02-16T03:17:17;9.00;99.90
14119;DHT22;7138;49.246;9.100;2024-02-16T03:19:43;9.00;99.90
14119;DHT22;7138;49.246;9.100;2024-02-16T03:22:09;8.90;99.90
14119;DHT22;7138;49.246;9.100;2024-02-16T03:24:35;8.80;99.90
14119;DHT22;7138;49.246;9.100;2024-02-16T03:27:00;8.80;99.90
14119;DHT22;7138;49.246;9.100;2024-02-16T03:29:26;8.80;99.90
14119;DHT22;7138;49.246;9.100;2024-02-16T03:31:54;8.80;99.90
14119;DHT22;7138;49.246;9.100;2024-02-16T03:34:19;8.80;99.90
14119;DHT22;7138;49.246;9.100;2024-02-16T03:36:45;8.80;99.90
14119;DHT22;7138;49.246;9.100;2024-02-16T03:39:11;8.80;99.90
14119;DHT22;7138;49.246;9.100;2024-02-16T03:41:37;8.80;99.90
14119;DHT22;7138;49.246;9.100;2024-02-16T03:44:03;8.80;99.90
14119;DHT22;7138;49.246;9.100;2024-02-16T03:46:28;8.70;99.90
14119;DHT22;7138;49.246;9.100;2024-02-16T03:48:56;8.70;99.90
14119;DHT22;7138;49.246;9.100;2024-02-16T03:51:22;8.80;99.90
14119;DHT22;7138;49.246;9.100;2024-02-16T03:53:47;8.80;99.90
14119;DHT22;7138;49.246;9.100;2024-02-16T03:56:18;8.80;99.90
14119;DHT22;7138;49.246;9.100;2024-02-16T03:58:44;8.80;99.90
14119;DHT22;7138;49.246;9.100;2024-02-16T04:01:10;8.80;99.90
14119;DHT22;7138;49.246;9.100;2024-02-16T04:03:36;8.90;99.90
14119;DHT22;7138;49.246;9.100;2024-02-16T04:06:03;9.00;99.90
14119;DHT22;7138;49.246;9.100;2024-02-16T04:08:30;8.90;99.90
14119;DHT22;7138;49.246;9.100;2024-02-16T04:10:56;8.80;99.90
14119;DHT22;7138;49.246;9.100;2024-02-16T04:13:22;8.70;99.90
14119;DHT22;7138;49.246;9.100;2024-02-16T04:15:48;8.70;99.90
14119;DHT22;7138;49.246;9.100;2024-02-16T04:18:14;8.70;99.90
14119;DHT22;7138;49.246;9.100;2024-02-16T04:20:39;8.70;99.90
14119;DHT22;7138;49.246;9.100;2024-02-16T04:23:08;8.70;99.90
14119;DHT22;7138;49.246;9.100;2024-02-16T04:25:33;8.60;99.90
14119;DHT22;7138;49.246;9.100;2024-02-16T04:27:59;8.60;99.90
14119;DHT22;7138;49.246;9.100;2024-02-16T04:30:25;8.70;99.90
14119;DHT22;7138;49.246;9.100;2024-02-16T04:32:51;8.70;99.90
14119;DHT22;7138;49.246;9.100;2024-02-16T04:35:17;8.80;99.90
14119;DHT22;7138;49.246;9.100;2024-02-16T04:37:43;8.80;99.90
14119;DHT22;7138;49.246;9.100;2024-02-16T04:40:11;8.80;99.90
14119;DHT22;7138;49.246;9.100;2024-02-16T04:42:40;8.70;99.90
14119;DHT22;7138;49.246;9.100;2024-02-16T04:45:07;8.70;99.90
14119;DHT22;7138;49.246;9.100;2024-02-16T04:47:36;8.70;99.90
14119;DHT22;7138;49.246;9.100;2024-02-16T04:50:03;8.70;99.90
14119;DHT22;7138;49.246;9.100;2024-02-16T04:52:29;8.80;99.90
14119;DHT22;7138;49.246;9.100;2024-02-16T04:54:55;8.80;99.90
14119;DHT22;7138;49.246;9.100;2024-02-16T04:57:22;8.80;99.90
14119;DHT22;7138;49.246;9.100;2024-02-16T04:59:48;8.80;99.90
14119;DHT22;7138;49.246;9.100;2024-02-16T05:02:14;8.70;99.90
14119;DHT22;7138;49.246;9.100;2024-02-16T05:04:39;8.70;99.90
14119;DHT22;7138;49.246;9.100;2024-02-16T05:07:05;8.70;99.90
14119;DHT22;7138;49.246;9.100;2024-02-16T05:09:32;8.70;99.90
14119;DHT22;7138;49.246;9.100;2024-02-16T05:11:58;8.60;99.90
14119;DHT22;7138;49.246;9.100;2024-02-16T05:14:25;8.60;99.90
14119;DHT22;7138;49.246;9.100;2024-02-16T05:16:51;8.50;99.90
14119;DHT22;7138;49.246;9.100;2024-02-16T05:19:17;8.40;99.90
14119;DHT22;7138;49.246;9.100;2024-02-16T05:21:43;8.30;99.90
14119;DHT22;7138;49.246;9.100;2024-02-16T05:24:10;8.20;99.90
14119;DHT22;7138;49.246;9.100;2024-02-16T05:26:36;8.10;99.90
14119;DHT22;7138;49.246;9.100;2024-02-16T05:29:02;8.00;99.90
14119;DHT22;7138;49.246;9.100;2024-02-16T05:31:29;7.90;99.90
14119;DHT22;7138;49.246;9.100;2024-02-16T05:33:56;7.90;99.90
14119;DHT22;7138;49.246;9.100;2024-02-16T05:36:23;7.90;99.90
14119;DHT22;7138;49.246;9.100;2024-02-16T05:38:55;7.80;99.90
14119;DHT22;7138;49.246;9.100;2024-02-16T05:41:22;7.80;99.90
14119;DHT22;7138;49.246;9.100;2024-02-16T05:43:48;7.70;99.90
14119;DHT22;7138;49.246;9.100;2024-02-16T05:46:17;7.60;99.90
14119;DHT22;7138;49.246;9.100;2024-02-16T05:48:44;7.80;99.90
14119;DHT22;7138;49.246;9.100;2024-02-16T05:51:11;7.80;99.90
14119;DHT22;7138;49.246;9.100;2024-02-16T05:53:38;8.00;99.90
14119;DHT22;7138;49.246;9.100;2024-02-16T05:56:05;7.90;99.90
14119;DHT22;7138;49.246;9.100;2024-02-16T05:58:31;7.70;99.90
14119;DHT22;7138;49.246;9.100;2024-02-16T06:00:56;7.70;99.90
14119;DHT22;7138;49.246;9.100;2024-02-16T06:03:23;7.60;99.90
14119;DHT22;7138;49.246;9.100;2024-02-16T06:05:50;7.50;99.90
14119;DHT22;7138;49.246;9.100;2024-02-16T06:08:16;7.50;99.90
14119;DHT22;7138;49.246;9.100;2024-02-16T06:10:43;7.50;99.90
14119;DHT22;7138;49.246;9.100;2024-02-16T06:13:09;7.50;99.90
14119;DHT22;7138;49.246;9.100;2024-02-16T06:15:35;7.60;99.90
14119;DHT22;7138;49.246;9.100;2024-02-16T06:18:03;7.60;99.90
14119;DHT22;7138;49.246;9.100;2024-02-16T06:20:28;7.60;99.90
14119;DHT22;7138;49.246;9.100;2024-02-16T06:22:56;7.50;99.90
14119;DHT22;7138;49.246;9.100;2024-02-16T06:25:22;7.40;99.90
14119;DHT22;7138;49.246;9.100;2024-02-16T06:27:48;7.40;99.90
14119;DHT22;7138;49.246;9.100;2024-02-16T06:30:14;7.60;99.90
14119;DHT22;7138;49.246;9.100;2024-02-16T06:32:40;7.70;99.90
14119;DHT22;7138;49.246;9.100;2024-02-16T06:35:07;7.70;99.90
14119;DHT22;7138;49.246;9.100;2024-02-16T06:37:34;7.70;99.90
14119;DHT22;7138;49.246;9.100;2024-02-16T06:40:01;7.70;99.90
14119;DHT22;7138;49.246;9.100;2024-02-16T06:42:27;7.70;99.90
14119;DHT22;7138;49.246;9.100;2024-02-16T06:44:54;7.70;99.90
14119;DHT22;7138;49.246;9.100;2024-02-16T06:47:20;7.70;99.90
14119;DHT22;7138;49.246;9.100;2024-02-16T06:49:46;7.70;99.90
14119;DHT22;7138;49.246;9.100;2024-02-16T06:52:12;7.70;99.90
14119;DHT22;7138;49.246;9.100;2024-02-16T06:54:38;7.70;99.90
14119;DHT22;7138;49.246;9.100;2024-02-16T06:57:05;7.80;99.90
14119;DHT22;7138;49.246;9.100;2024-02-16T06:59:31;7.80;99.90
14119;DHT22;7138;49.246;9.100;2024-02-16T07:01:57;7.80;99.90
14119;DHT22;7138;49.246;9.100;2024-02-16T07:04:23;7.90;99.90
14119;DHT22;7138;49.246;9.100;2024-02-16T07:06:49;8.00;99.90
14119;DHT22;7138;49.246;9.100;2024-02-16T07:09:14;8.00;99.90
14119;DHT22;7138;49.246;9.100;2024-02-16T07:11:40;8.00;99.90
14119;DHT22;7138;49.246;9.100;2024-02-16T07:14:08;8.00;99.90
14119;DHT22;7138;49.246;9.100;2024-02-16T07:16:34;8.10;99.90
14119;DHT22;7138;49.246;9.100;2024-02-16T07:19:00;8.00;99.90
14119;DHT22;7138;49.246;9.100;2024-02-16T07:21:26;8.20;99.90
14119;DHT22;7138;49.246;9.100;2024-02-16T07:23:52;8.20;99.90
14119;DHT22;7138;49.246;9.100;2024-02-16T07:26:18;8.20;99.90
14119;DHT22;7138;49.246;9.100;2024-02-16T07:28:44;8.20;99.90
14119;DHT22;7138;49.246;9.100;2024-02-16T07:31:12;8.20;99.90
14119;DHT22;7138;49.246;9.100;2024-02-16T07:33:39;8.20;99.90
14119;DHT22;7138;49.246;9.100;2024-02-16T07:36:06;8.20;99.90
14119;DHT22;7138;49.246;9.100;2024-02-16T07:38:33;8.40;99.90
14119;DHT22;7138;49.246;9.100;2024-02-16T07:40:59;8.40;99.90
14119;DHT22;7138;49.246;9.100;2024-02-16T07:43:25;8.50;99.90
14119;DHT22;7138;49.246;9.100;2024-02-16T07:45:52;8.50;99.90
14119;DHT22;7138;49.246;9.100;2024-02-16T07:48:21;8.70;99.90
14119;DHT22;7138;49.246;9.100;2024-02-16T07:50:47;8.90;99.90
14119;DHT22;7138;49.246;9.100;2024-02-16T07:53:15;9.10;99.90
14119;DHT22;7138;49.246;9.100;2024-02-16T07:55:41;9.40;99.90
14119;DHT22;7138;49.246;9.100;2024-02-16T07:58:07;9.60;99.90
14119;DHT22;7138;49.246;9.100;2024-02-16T08:00:34;9.90;99.90
14119;DHT22;7138;49.246;9.100;2024-02-16T08:03:00;10.20;99.90
14119;DHT22;7138;49.246;9.100;2024-02-16T08:05:27;10.40;99.90
14119;DHT22;7138;49.246;9.100;2024-02-16T08:07:53;10.50;99.90
14119;DHT22;7138;49.246;9.100;2024-02-16T08:10:19;10.50;99.90
14119;DHT22;7138;49.246;9.100;2024-02-16T08:12:46;10.50;99.90
14119;DHT22;7138;49.246;9.100;2024-02-16T08:15:12;10.50;99.90
14119;DHT22;7138;49.246;9.100;2024-02-16T08:17:39;10.40;99.90
14119;DHT22;7138;49.246;9.100;2024-02-16T08:20:07;10.40;99.90
14119;DHT22;7138;49.246;9.100;2024-02-16T08:22:35;10.50;99.90
14119;DHT22;7138;49.246;9.100;2024-02-16T08:25:01;10.50;99.90
14119;DHT22;7138;49.246;9.100;2024-02-16T08:27:27;10.50;99.90
14119;DHT22;7138;49.246;9.100;2024-02-16T08:29:53;10.50;99.90
14119;DHT22;7138;49.246;9.100;2024-02-16T08:32:19;10.60;99.90
14119;DHT22;7138;49.246;9.100;2024-02-16T08:34:46;10.60;99.90
14119;DHT22;7138;49.246;9.100;2024-02-16T08:37:13;10.70;99.90
14119;DHT22;7138;49.246;9.100;2024-02-16T08:39:41;10.80;99.90
14119;DHT22;7138;49.246;9.100;2024-02-16T08:42:06;10.90;99.90
14119;DHT22;7138;49.246;9.100;2024-02-16T08:44:34;11.00;99.90
14119;DHT22;7138;49.246;9.100;2024-02-16T08:47:00;11.00;99.90
14119;DHT22;7138;49.246;9.100;2024-02-16T08:49:26;11.00;99.90
14119;DHT22;7138;49.246;9.100;2024-02-16T08:51:52;11.10;99.90
14119;DHT22;7138;49.246;9.100;2024-02-16T08:54:18;11.20;99.90
14119;DHT22;7138;49.246;9.100;2024-02-16T08:56:45;11.30;99.90
14119;DHT22;7138;49.246;9.100;2024-02-16T08:59:11;11.40;99.90
14119;DHT22;7138;49.246;9.100;2024-02-16T09:01:38;11.70;99.90
14119;DHT22;7138;49.246;9.100;2024-02-16T09:04:06;11.80;99.90
14119;DHT22;7138;49.246;9.100;2024-02-16T09:06:32;11.90;99.90
14119;DHT22;7138;49.246;9.100;2024-02-16T09:09:00;11.90;99.90
14119;DHT22;7138;49.246;9.100;2024-02-16T09:11:26;11.80;99.90
14119;DHT22;7138;49.246;9.100;2024-02-16T09:13:54;11.80;99.90
14119;DHT22;7138;49.246;9.100;2024-02-16T09:16:20;11.90;99.90
14119;DHT22;7138;49.246;9.100;2024-02-16T09:18:46;12.00;99.90
14119;DHT22;7138;49.246;9.100;2024-02-16T09:21:14;12.10;99.90
14119;DHT22;7138;49.246;9.100;2024-02-16T09:23:40;12.20;99.90
14119;DHT22;7138;49.246;9.100;2024-02-16T09:26:06;12.20;99.90
14119;DHT22;7138;49.246;9.100;2024-02-16T09:28:38;12.30;99.90
14119;DHT22;7138;49.246;9.100;2024-02-16T09:31:07;12.50;99.90
14119;DHT22;7138;49.246;9.100;2024-02-16T09:33:33;12.60;99.90
14119;DHT22;7138;49.246;9.100;2024-02-16T09:36:00;12.60;99.90
14119;DHT22;7138;49.246;9.100;2024-02-16T09:38:26;12.70;99.90
14119;DHT22;7138;49.246;9.100;2024-02-16T09:40:52;12.80;99.90
14119;DHT22;7138;49.246;9.100;2024-02-16T09:43:25;13.00;99.90
14119;DHT22;7138;49.246;9.100;2024-02-16T09:45:54;13.00;99.90
14119;DHT22;7138;49.246;9.100;2024-02-16T09:48:22;13.10;99.90
14119;DHT22;7138;49.246;9.100;2024-02-16T09:50:49;13.10;99.90
14119;DHT22;7138;49.246;9.100;2024-02-16T09:53:17;13.20;99.90
14119;DHT22;7138;49.246;9.100;2024-02-16T09:55:48;13.20;99.90
14119;DHT22;7138;49.246;9.100;2024-02-16T09:58:16;13.20;99.90
14119;DHT22;7138;49.246;9.100;2024-02-16T10:00:47;13.40;99.90
14119;DHT22;7138;49.246;9.100;2024-02-16T10:03:23;13.40;99.90
14119;DHT22;7138;49.246;9.100;2024-02-16T10:05:50;13.60;99.90
14119;DHT22;7138;49.246;9.100;2024-02-16T10:08:17;13.70;99.90
14119;DHT22;7138;49.246;9.100;2024-02-16T10:10:43;13.90;99.90
14119;DHT22;7138;49.246;9.100;2024-02-16T10:13:09;14.00;99.90
14119;DHT22;7138;49.246;9.100;2024-02-16T10:15:37;14.00;99.90
14119;DHT22;7138;49.246;9.100;2024-02-16T10:18:04;14.00;99.90
14119;DHT22;7138;49.246;9.100;2024-02-16T10:20:33;14.10;99.90
14119;DHT22;7138;49.246;9.100;2024-02-16T10:23:04;14.20;99.90
14119;DHT22;7138;49.246;9.100;2024-02-16T10:25:31;14.20;99.90
14119;DHT22;7138;49.246;9.100;2024-02-16T10:27:57;14.30;99.90
14119;DHT22;7138;49.246;9.100;2024-02-16T10:30:29;14.40;99.90
14119;DHT22;7138;49.246;9.100;2024-02-16T10:32:59;14.40;99.90
14119;DHT22;7138;49.246;9.100;2024-02-16T10:35:25;14.30;99.90
14119;DHT22;7138;49.246;9.100;2024-02-16T10:37:56;14.40;99.90
14119;DHT22;7138;49.246;9.100;2024-02-16T10:40:23;14.40;99.90
14119;DHT22;7138;49.246;9.100;2024-02-16T10:42:50;14.20;99.90
14119;DHT22;7138;49.246;9.100;2024-02-16T10:45:17;14.20;99.90
14119;DHT22;7138;49.246;9.100;2024-02-16T10:47:44;14.10;99.90
14119;DHT22;7138;49.246;9.100;2024-02-16T10:50:10;14.20;99.90
14119;DHT22;7138;49.246;9.100;2024-02-16T10:52:37;14.30;99.90
14119;DHT22;7138;49.246;9.100;2024-02-16T10:55:08;14.30;99.90
14119;DHT22;7138;49.246;9.100;2024-02-16T10:57:35;14.30;99.90
14119;DHT22;7138;49.246;9.100;2024-02-16T11:00:08;14.30;99.90
14119;DHT22;7138;49.246;9.100;2024-02-16T11:02:51;14.40;99.90
14119;DHT22;7138;49.246;9.100;2024-02-16T11:05:18;14.50;99.90
14119;DHT22;7138;49.246;9.100;2024-02-16T11:07:44;14.50;99.90
14119;DHT22;7138;49.246;9.100;2024-02-16T11:10:13;14.50;99.90
14119;DHT22;7138;49.246;9.100;2024-02-16T11:12:43;14.50;99.90
14119;DHT22;7138;49.246;9.100;2024-02-16T11:15:14;14.60;99.90
14119;DHT22;7138;49.246;9.100;2024-02-16T11:17:40;14.70;99.90
14119;DHT22;7138;49.246;9.100;2024-02-16T11:20:08;14.70;99.90
14119;DHT22;7138;49.246;9.100;2024-02-16T11:22:37;14.80;99.90
14119;DHT22;7138;49.246;9.100;2024-02-16T11:25:07;15.00;99.90
14119;DHT22;7138;49.246;9.100;2024-02-16T11:27:36;15.10;99.90
14119;DHT22;7138;49.246;9.100;2024-02-16T11:30:02;15.40;99.90
14119;DHT22;7138;49.246;9.100;2024-02-16T11:32:32;15.40;99.90
14119;DHT22;7138;49.246;9.100;2024-02-16T11:35:05;15.40;99.90
14119;DHT22;7138;49.246;9.100;2024-02-16T11:37:32;15.60;99.90
14119;DHT22;7138;49.246;9.100;2024-02-16T11:39:58;15.80;99.90
14119;DHT22;7138;49.246;9.100;2024-02-16T11:42:24;15.90;99.90
14119;DHT22;7138;49.246;9.100;2024-02-16T11:44:52;15.80;99.90
14119;DHT22;7138;49.246;9.100;2024-02-16T11:47:20;16.00;99.90
14119;DHT22;7138;49.246;9.100;2024-02-16T11:50:00;16.20;99.90
14119;DHT22;7138;49.246;9.100;2024-02-16T11:52:27;16.40;99.90
14119;DHT22;7138;49.246;9.100;2024-02-16T11:54:53;16.70;99.90
14119;DHT22;7138;49.246;9.100;2024-02-16T11:57:19;17.20;99.90
14119;DHT22;7138;49.246;9.100;2024-02-16T11:59:45;17.40;99.90
14119;DHT22;7138;49.246;9.100;2024-02-16T12:02:18;17.30;99.90
14119;DHT22;7138;49.246;9.100;2024-02-16T12:04:57;17.10;99.90
14119;DHT22;7138;49.246;9.100;2024-02-16T12:07:25;17.00;99.90
14119;DHT22;7138;49.246;9.100;2024-02-16T12:09:56;16.90;99.90
14119;DHT22;7138;49.246;9.100;2024-02-16T12:12:23;16.70;99.90
14119;DHT22;7138;49.246;9.100;2024-02-16T12:14:49;16.50;99.90
14119;DHT22;7138;49.246;9.100;2024-02-16T12:17:15;16.50;99.90
14119;DHT22;7138;49.246;9.100;2024-02-16T12:19:45;16.50;99.90
14119;DHT22;7138;49.246;9.100;2024-02-16T12:22:16;16.50;99.90
14119;DHT22;7138;49.246;9.100;2024-02-16T12:24:44;16.60;99.90
14119;DHT22;7138;49.246;9.100;2024-02-16T12:27:10;16.80;99.90
14119;DHT22;7138;49.246;9.100;2024-02-16T12:29:35;16.80;99.90
14119;DHT22;7138;49.246;9.100;2024-02-16T12:32:01;16.60;99.90
14119;DHT22;7138;49.246;9.100;2024-02-16T12:34:27;16.60;99.90
14119;DHT22;7138;49.246;9.100;2024-02-16T12:36:55;16.40;99.90
14119;DHT22;7138;49.246;9.100;2024-02-16T12:39:20;16.80;99.90
14119;DHT22;7138;49.246;9.100;2024-02-16T12:41:47;16.90;99.90
14119;DHT22;7138;49.246;9.100;2024-02-16T12:44:14;17.10;99.90
14119;DHT22;7138;49.246;9.100;2024-02-16T12:46:41;17.20;99.90
14119;DHT22;7138;49.246;9.100;2024-02-16T12:49:09;17.10;99.90
14119;DHT22;7138;49.246;9.100;2024-02-16T12:51:35;17.00;99.90
14119;DHT22;7138;49.246;9.100;2024-02-16T12:54:02;16.90;99.90
14119;DHT22;7138;49.246;9.100;2024-02-16T12:56:29;16.60;99.90
14119;DHT22;7138;49.246;9.100;2024-02-16T12:58:55;16.40;99.90
14119;DHT22;7138;49.246;9.100;2024-02-16T13:01:22;16.40;99.90
14119;DHT22;7138;49.246;9.100;2024-02-16T13:03:48;16.20;99.90
14119;DHT22;7138;49.246;9.100;2024-02-16T13:06:14;16.20;99.90
14119;DHT22;7138;49.246;9.100;2024-02-16T13:08:40;16.10;99.90
14119;DHT22;7138;49.246;9.100;2024-02-16T13:11:07;16.00;99.90
14119;DHT22;7138;49.246;9.100;2024-02-16T13:13:34;16.00;99.90
14119;DHT22;7138;49.246;9.100;2024-02-16T13:15:59;15.90;99.90
14119;DHT22;7138;49.246;9.100;2024-02-16T13:18:25;15.90;99.90
14119;DHT22;7138;49.246;9.100;2024-02-16T13:20:55;15.90;99.90
14119;DHT22;7138;49.246;9.100;2024-02-16T13:23:30;15.80;99.90
14119;DHT22;7138;49.246;9.100;2024-02-16T13:25:56;15.80;99.90
14119;DHT22;7138;49.246;9.100;2024-02-16T13:28:23;15.90;99.90
14119;DHT22;7138;49.246;9.100;2024-02-16T13:33:15;16.00;99.90
14119;DHT22;7138;49.246;9.100;2024-02-16T13:35:41;16.20;99.90
14119;DHT22;7138;49.246;9.100;2024-02-16T13:38:07;16.20;99.90
14119;DHT22;7138;49.246;9.100;2024-02-16T13:40:34;16.20;99.90
14119;DHT22;7138;49.246;9.100;2024-02-16T13:43:01;16.40;99.90
14119;DHT22;7138;49.246;9.100;2024-02-16T13:45:47;16.40;99.90
14119;DHT22;7138;49.246;9.100;2024-02-16T13:48:15;16.50;99.90
14119;DHT22;7138;49.246;9.100;2024-02-16T13:50:44;16.50;99.90
14119;DHT22;7138;49.246;9.100;2024-02-16T13:53:11;16.40;99.90
14119;DHT22;7138;49.246;9.100;2024-02-16T13:55:37;16.40;99.90
14119;DHT22;7138;49.246;9.100;2024-02-16T13:58:03;16.40;99.90
14119;DHT22;7138;49.246;9.100;2024-02-16T14:00:30;16.40;99.90
14119;DHT22;7138;49.246;9.100;2024-02-16T14:02:56;16.30;99.90
14119;DHT22;7138;49.246;9.100;2024-02-16T14:05:22;16.20;99.90
14119;DHT22;7138;49.246;9.100;2024-02-16T14:07:50;16.10;99.90
14119;DHT22;7138;49.246;9.100;2024-02-16T14:10:16;16.20;99.90
14119;DHT22;7138;49.246;9.100;2024-02-16T14:12:44;16.10;99.90
14119;DHT22;7138;49.246;9.100;2024-02-16T14:15:10;16.00;99.90
14119;DHT22;7138;49.246;9.100;2024-02-16T14:17:42;16.00;99.90
14119;DHT22;7138;49.246;9.100;2024-02-16T14:20:09;16.10;99.90
14119;DHT22;7138;49.246;9.100;2024-02-16T14:22:35;16.10;99.90
14119;DHT22;7138;49.246;9.100;2024-02-16T14:25:01;16.20;99.90
14119;DHT22;7138;49.246;9.100;2024-02-16T14:27:29;16.40;99.90
14119;DHT22;7138;49.246;9.100;2024-02-16T14:29:55;16.50;99.90
14119;DHT22;7138;49.246;9.100;2024-02-16T14:32:21;16.80;99.90
14119;DHT22;7138;49.246;9.100;2024-02-16T14:34:48;16.80;99.90
14119;DHT22;7138;49.246;9.100;2024-02-16T14:37:14;17.00;99.90
14119;DHT22;7138;49.246;9.100;2024-02-16T14:39:40;17.00;99.90
14119;DHT22;7138;49.246;9.100;2024-02-16T14:42:06;16.70;99.90
14119;DHT22;7138;49.246;9.100;2024-02-16T14:44:32;16.50;99.90
14119;DHT22;7138;49.246;9.100;2024-02-16T14:46:57;16.30;99.90
14119;DHT22;7138;49.246;9.100;2024-02-16T14:49:23;16.10;99.90
14119;DHT22;7138;49.246;9.100;2024-02-16T14:51:51;16.00;99.90
14119;DHT22;7138;49.246;9.100;2024-02-16T14:54:18;15.90;99.90
14119;DHT22;7138;49.246;9.100;2024-02-16T14:56:44;15.80;99.90
14119;DHT22;7138;49.246;9.100;2024-02-16T14:59:10;15.70;99.90
14119;DHT22;7138;49.246;9.100;2024-02-16T15:01:36;15.60;99.90
14119;DHT22;7138;49.246;9.100;2024-02-16T15:04:02;15.70;99.90
14119;DHT22;7138;49.246;9.100;2024-02-16T15:06:28;15.60;99.90
14119;DHT22;7138;49.246;9.100;2024-02-16T15:08:56;15.50;99.90
14119;DHT22;7138;49.246;9.100;2024-02-16T15:11:21;15.50;99.90
14119;DHT22;7138;49.246;9.100;2024-02-16T15:13:47;15.40;99.90
14119;DHT22;7138;49.246;9.100;2024-02-16T15:16:15;15.40;99.90
14119;DHT22;7138;49.246;9.100;2024-02-16T15:18:41;15.30;99.90
14119;DHT22;7138;49.246;9.100;2024-02-16T15:21:07;15.30;99.90
14119;DHT22;7138;49.246;9.100;2024-02-16T15:23:32;15.20;99.90
14119;DHT22;7138;49.246;9.100;2024-02-16T15:26:00;15.10;99.90
14119;DHT22;7138;49.246;9.100;2024-02-16T15:28:28;15.10;99.90
14119;DHT22;7138;49.246;9.100;2024-02-16T15:30:54;15.10;99.90
14119;DHT22;7138;49.246;9.100;2024-02-16T15:33:20;15.00;99.90
14119;DHT22;7138;49.246;9.100;2024-02-16T15:35:45;14.80;99.90
14119;DHT22;7138;49.246;9.100;2024-02-16T15:38:11;14.90;99.90
14119;DHT22;7138;49.246;9.100;2024-02-16T15:40:37;14.90;99.90
14119;DHT22;7138;49.246;9.100;2024-02-16T15:43:04;14.80;99.90
14119;DHT22;7138;49.246;9.100;2024-02-16T15:45:32;14.80;99.90
14119;DHT22;7138;49.246;9.100;2024-02-16T15:48:06;14.80;99.90
14119;DHT22;7138;49.246;9.100;2024-02-16T15:50:32;14.70;99.90
14119;DHT22;7138;49.246;9.100;2024-02-16T15:52:58;14.70;99.90
14119;DHT22;7138;49.246;9.100;2024-02-16T15:55:24;14.70;99.90